Ozark, Arkansas
Current Conditions -  °F | °C
As of 9:53 PM on Tuesday 27 Jan 2015 (Local Time) from KFSM Reporting Station
Clear Clear  
Wind Chill: 49°   Ceiling: Unl
Heat Index: 49°   Visibility: 10mi
Dew Point: 33°   Wind: 3mph
Humidity: 54%   Direction: 60°ENE
Pressure: 30.1"   Gusts: NA
Location:  35.49°N, 93.83°W
Report Text: KFSM 280353Z 06003KT 10SM CLR 09/01 A3010 RMK AO2 SLP194 T00940006
Loading
Personal Weather Stations






























Interactive Weather Map New forecast layout! Learn more

10-Day Weather Forecast

Advertisements
Track Severe Weather on mobile